Time;durP1;ratioP1;P1;durP2;ratioP2;P2;SDS_P1;SDS_P2;PMS_P1;PMS_P2;Temp;Humidity;BMP_temperature;BMP_pressure;BME280_temperature;BME280_humidity;BME280_pressure;Samples;Min_cycle;Max_cycle;Signal;HPM_P1;HPM_P2
2023/04/22 00:01:55;;;;;;;10.48;7.38;;;;;;;11.52;52.15;100890.66;7398519;19;20018;-71
2023/04/22 00:04:24;;;;;;;8.98;6.97;;;;;;;11.48;52.34;100889.84;7396870;19;20035;-70
2023/04/22 00:06:52;;;;;;;10.13;7.10;;;;;;;11.44;52.32;100893.44;7398665;19;20039;-70
2023/04/22 00:09:21;;;;;;;11.63;7.43;;;;;;;11.42;52.47;100887.34;7396278;19;20011;-70
2023/04/22 00:11:49;;;;;;;10.63;7.43;;;;;;;11.38;52.63;100885.69;7398234;19;20082;-70
2023/04/22 00:14:18;;;;;;;8.93;7.47;;;;;;;11.32;52.67;100877.97;7396600;19;20031;-69
2023/04/22 00:16:49;;;;;;;8.95;7.20;;;;;;;11.32;52.83;100884.09;7398292;19;20039;-69
2023/04/22 00:19:17;;;;;;;10.90;7.70;;;;;;;11.28;52.94;100881.56;7397919;19;20018;-69
2023/04/22 00:21:46;;;;;;;10.10;7.57;;;;;;;11.23;52.94;100877.28;7396100;19;20023;-69
2023/04/22 00:24:14;;;;;;;9.15;7.35;;;;;;;11.21;53.09;100876.44;7396052;19;20391;-69
2023/04/22 00:26:43;;;;;;;8.93;7.32;;;;;;;11.17;53.13;100871.28;7398051;19;20023;-69
2023/04/22 00:29:11;;;;;;;8.77;6.78;;;;;;;11.13;53.23;100865.22;7398001;19;20022;-70
2023/04/22 00:31:40;;;;;;;8.73;6.93;;;;;;;11.09;53.36;100866.22;7397481;19;20082;-69
2023/04/22 00:34:11;;;;;;;10.35;6.90;;;;;;;11.04;53.47;100868.91;7396306;19;20039;-70
2023/04/22 00:36:39;;;;;;;8.57;7.38;;;;;;;11.02;53.66;100864.59;7395549;19;20498;-70
2023/04/22 00:39:08;;;;;;;8.27;6.95;;;;;;;10.98;53.75;100863.84;7395610;19;20420;-70
2023/04/22 00:41:37;;;;;;;9.25;7.68;;;;;;;10.95;53.87;100868.28;7395516;19;20485;-70
2023/04/22 00:44:06;;;;;;;11.02;7.75;;;;;;;10.87;53.95;100856.16;7395654;19;20476;-70
2023/04/22 00:46:36;;;;;;;11.95;7.63;;;;;;;10.87;54.00;100857.94;7397131;19;20019;-70
2023/04/22 00:49:04;;;;;;;9.05;7.20;;;;;;;10.83;54.09;100859.75;7397284;19;20032;-70
2023/04/22 00:51:35;;;;;;;9.65;7.28;;;;;;;10.80;54.19;100859.81;7396999;19;20055;-70
2023/04/22 00:54:05;;;;;;;11.88;7.97;;;;;;;10.77;54.30;100852.00;7396010;19;20018;-70
2023/04/22 00:56:37;;;;;;;8.23;7.38;;;;;;;10.73;54.56;100850.38;7397123;19;20036;-70
2023/04/22 00:59:06;;;;;;;9.88;7.63;;;;;;;10.69;54.50;100853.91;7396595;19;20489;-70
2023/04/22 01:01:34;;;;;;;11.88;7.10;;;;;;;10.67;54.62;100853.09;7395295;19;20018;-70
2023/04/22 01:04:05;;;;;;;8.88;7.80;;;;;;;10.63;54.85;100848.78;7395128;19;20023;-70
2023/04/22 01:06:38;;;;;;;9.00;7.28;;;;;;;10.59;54.83;100841.00;7395407;19;20034;-70
2023/04/22 01:09:06;;;;;;;9.98;7.40;;;;;;;10.57;54.97;100841.94;7396927;19;20022;-70
2023/04/22 01:11:35;;;;;;;9.20;7.70;;;;;;;10.53;55.00;100843.75;7396626;19;20018;-71
2023/04/22 01:14:04;;;;;;;11.82;8.30;;;;;;;10.50;55.24;100835.94;7395528;19;20035;-69
2023/04/22 01:16:34;;;;;;;10.02;7.85;;;;;;;10.46;55.48;100836.88;7396048;19;20018;-69
2023/04/22 01:19:03;;;;;;;10.00;7.53;;;;;;;10.42;55.53;100832.59;7396337;19;20019;-69
2023/04/22 01:21:32;;;;;;;10.73;7.85;;;;;;;10.40;55.67;100834.38;7395033;19;20014;-69
2023/04/22 01:24:03;;;;;;;10.88;8.35;;;;;;;10.36;55.74;100837.97;7394225;19;20025;-69
2023/04/22 01:26:32;;;;;;;11.07;7.78;;;;;;;10.33;55.82;100833.59;7396539;19;20031;-69
2023/04/22 01:29:03;;;;;;;10.63;7.88;;;;;;;10.27;55.92;100826.75;7393967;19;20014;-69
2023/04/22 01:31:33;;;;;;;12.85;7.93;;;;;;;10.26;56.06;100830.25;7395684;19;20018;-69
2023/04/22 01:34:01;;;;;;;13.98;9.07;;;;;;;10.19;56.09;100826.00;7394760;19;20018;-69
2023/04/22 01:36:31;;;;;;;10.43;7.65;;;;;;;10.17;56.21;100822.53;7395500;19;20485;-69
2023/04/22 01:39:03;;;;;;;9.45;7.88;;;;;;;10.15;56.24;100834.84;7393670;19;20017;-69
2023/04/22 01:41:32;;;;;;;11.02;7.65;;;;;;;10.11;56.35;100830.53;7394157;19;20502;-69
2023/04/22 01:44:04;;;;;;;10.32;7.80;;;;;;;10.08;56.50;100826.22;7393936;19;20494;-69
2023/04/22 01:46:34;;;;;;;9.52;7.55;;;;;;;10.03;56.60;100817.56;7393618;19;20027;-69
2023/04/22 01:49:03;;;;;;;9.63;8.00;;;;;;;10.00;56.74;100816.78;7395042;19;20486;-69
2023/04/22 01:51:31;;;;;;;9.50;8.23;;;;;;;9.97;56.75;100819.44;7395392;19;20031;-69
2023/04/22 01:54:03;;;;;;;11.30;8.38;;;;;;;9.94;57.00;100825.59;7393758;19;20031;-69
2023/04/22 01:56:31;;;;;;;12.23;8.52;;;;;;;9.90;57.02;100821.31;7395689;19;20018;-69
2023/04/22 01:59:00;;;;;;;11.77;8.20;;;;;;;9.87;57.26;100816.09;7395244;19;20358;-69
2023/04/22 02:01:28;;;;;;;10.88;8.07;;;;;;;9.84;57.21;100813.53;7393525;19;20035;-69
2023/04/22 02:03:57;;;;;;;10.18;7.95;;;;;;;9.81;57.46;100819.72;7393776;19;20027;-69
2023/04/22 02:06:26;;;;;;;11.85;8.15;;;;;;;9.76;57.51;100813.69;7395046;19;20014;-69
2023/04/22 02:08:54;;;;;;;12.80;7.75;;;;;;;9.73;57.63;100806.75;7392690;19;20015;-69
2023/04/22 02:11:25;;;;;;;12.18;8.07;;;;;;;9.70;57.82;100817.25;7394941;19;20490;-69
2023/04/22 02:13:54;;;;;;;13.63;9.10;;;;;;;9.67;57.84;100809.47;7393710;19;20018;-69
2023/04/22 02:16:22;;;;;;;11.90;8.35;;;;;;;9.64;58.02;100801.63;7394809;19;20078;-69
2023/04/22 02:18:51;;;;;;;13.00;8.15;;;;;;;9.60;58.37;100806.09;7392695;19;20022;-69
2023/04/22 02:21:20;;;;;;;12.45;8.48;;;;;;;9.56;58.41;100799.16;7394732;19;20019;-69
2023/04/22 02:23:48;;;;;;;10.90;8.25;;;;;;;9.51;58.68;100802.75;7400333;19;20031;-69
2023/04/22 02:26:17;;;;;;;13.43;8.95;;;;;;;9.46;58.87;100797.56;7401940;19;20027;-69
2023/04/22 02:28:48;;;;;;;10.55;8.63;;;;;;;9.42;59.11;100801.16;7402669;19;20018;-69
2023/04/22 02:31:16;;;;;;;9.82;7.95;;;;;;;9.37;59.30;100801.22;7402368;19;20030;-69
2023/04/22 02:33:45;;;;;;;12.15;8.60;;;;;;;9.34;59.39;100803.00;7398793;19;20018;-69
2023/04/22 02:36:13;;;;;;;10.80;8.48;;;;;;;9.29;59.59;100800.47;7401096;19;20484;-69
2023/04/22 02:38:48;;;;;;;10.57;8.45;;;;;;;9.25;59.75;100798.78;7399202;19;20372;-69
2023/04/22 02:41:16;;;;;;;9.75;8.13;;;;;;;9.20;59.81;100788.41;7400652;19;20019;-68
2023/04/22 02:43:47;;;;;;;13.23;8.60;;;;;;;9.17;60.00;100793.66;7399707;19;20022;-68
2023/04/22 02:46:17;;;;;;;12.85;8.77;;;;;;;9.12;59.96;100785.91;7399140;19;20035;-68
2023/04/22 02:48:46;;;;;;;12.65;9.57;;;;;;;9.09;60.24;100785.94;7398569;19;20022;-68
2023/04/22 02:51:14;;;;;;;11.50;8.38;;;;;;;9.06;60.37;100785.09;7401269;19;20026;-68
2023/04/22 02:53:43;;;;;;;10.77;9.35;;;;;;;9.01;60.34;100784.31;7399589;19;20022;-68
2023/04/22 02:56:12;;;;;;;13.05;8.85;;;;;;;8.96;60.67;100781.78;7400804;19;20514;-68
2023/04/22 02:58:40;;;;;;;11.68;9.02;;;;;;;8.92;60.76;100783.56;7398025;19;20393;-68
2023/04/22 03:01:11;;;;;;;10.10;8.50;;;;;;;8.88;60.80;100781.84;7399450;19;20086;-68
2023/04/22 03:03:39;;;;;;;14.70;8.80;;;;;;;8.83;61.17;100786.28;7399036;19;20019;-68
2023/04/22 03:06:08;;;;;;;12.80;9.18;;;;;;;8.79;61.32;100782.84;7400345;19;20035;-68
2023/04/22 03:08:37;;;;;;;10.77;9.63;;;;;;;8.76;61.65;100784.69;7400852;19;20018;-68
2023/04/22 03:11:06;;;;;;;11.93;8.70;;;;;;;8.71;61.88;100776.88;7400524;19;20022;-69
2023/04/22 03:13:35;;;;;;;11.77;9.30;;;;;;;8.66;62.13;100777.81;7398969;19;20026;-69
2023/04/22 03:16:03;;;;;;;11.45;9.48;;;;;;;8.60;62.04;100784.84;7400104;19;20375;-69
2023/04/22 03:18:34;;;;;;;14.18;9.60;;;;;;;8.55;62.43;100776.19;7400333;19;20026;-69
2023/04/22 03:21:03;;;;;;;12.73;9.77;;;;;;;8.50;62.41;100771.94;7399391;19;20378;-69
2023/04/22 03:23:32;;;;;;;13.98;9.25;;;;;;;8.44;62.67;100771.09;7398705;19;20023;-69
2023/04/22 03:26:00;;;;;;;13.15;10.15;;;;;;;8.39;62.95;100764.19;7397752;19;20007;-69
2023/04/22 03:28:29;;;;;;;14.18;9.73;;;;;;;8.32;63.22;100774.69;7399599;19;20490;-70
2023/04/22 03:30:57;;;;;;;13.95;10.57;;;;;;;8.26;63.44;100769.53;7399625;19;20019;-69
2023/04/22 03:33:26;;;;;;;13.18;10.02;;;;;;;8.22;63.42;100773.09;7396083;19;20022;-69
2023/04/22 03:35:58;;;;;;;13.13;9.98;;;;;;;8.17;63.63;100769.66;7399434;19;20394;-69
2023/04/22 03:38:26;;;;;;;12.27;9.60;;;;;;;8.11;63.98;100772.34;7398594;19;20035;-69
2023/04/22 03:40:55;;;;;;;12.93;9.90;;;;;;;8.06;64.21;100772.41;7399555;19;20022;-69
2023/04/22 03:43:23;;;;;;;14.90;11.02;;;;;;;8.02;64.24;100775.91;7398370;19;20014;-69
2023/04/22 03:45:53;;;;;;;13.55;10.38;;;;;;;7.94;64.65;100773.38;7397052;19;20086;-69
2023/04/22 03:48:21;;;;;;;14.10;10.90;;;;;;;7.89;64.67;100775.19;7399249;19;20018;-69
2023/04/22 03:50:50;;;;;;;14.57;10.85;;;;;;;7.85;64.86;100778.72;7399256;19;20022;-69
2023/04/22 03:53:21;;;;;;;12.43;9.88;;;;;;;7.80;65.13;100778.75;7398291;19;20111;-69
2023/04/22 03:55:49;;;;;;;18.33;11.70;;;;;;;7.76;65.04;100774.44;7399466;19;20082;-69
2023/04/22 03:58:18;;;;;;;14.07;10.15;;;;;;;7.73;65.29;100776.22;7396744;19;20022;-70
2023/04/22 04:00:47;;;;;;;13.43;11.68;;;;;;;7.69;65.43;100777.13;7398803;19;20038;-69
2023/04/22 04:03:15;;;;;;;16.70;11.20;;;;;;;7.65;65.53;100777.16;7397903;19;20022;-69
2023/04/22 04:05:43;;;;;;;15.00;10.65;;;;;;;7.61;65.81;100775.44;7398382;19;20485;-69
2023/04/22 04:08:12;;;;;;;12.57;10.38;;;;;;;7.58;65.98;100780.72;7398661;19;20019;-69
2023/04/22 04:10:43;;;;;;;12.98;10.73;;;;;;;7.54;66.16;100773.75;7398554;19;20078;-69
2023/04/22 04:13:12;;;;;;;14.93;11.13;;;;;;;7.52;66.24;100774.66;7398008;19;20029;-69
2023/04/22 04:15:40;;;;;;;15.20;11.35;;;;;;;7.49;66.38;100772.94;7398107;19;20034;-69
2023/04/22 04:18:10;;;;;;;15.52;10.50;;;;;;;7.46;66.47;100770.38;7397947;19;20373;-68
2023/04/22 04:20:38;;;;;;;12.43;10.63;;;;;;;7.43;66.38;100773.00;7398252;19;20014;-69
2023/04/22 04:23:07;;;;;;;13.43;10.30;;;;;;;7.40;66.52;100771.28;7396104;19;20086;-68
2023/04/22 04:25:37;;;;;;;14.07;10.32;;;;;;;7.37;66.63;100763.47;7397755;19;20592;-68
2023/04/22 04:28:10;;;;;;;13.52;10.90;;;;;;;7.34;66.89;100766.09;7398520;19;20043;-69
2023/04/22 04:30:40;;;;;;;13.32;11.10;;;;;;;7.33;66.89;100770.47;7398429;19;20027;-69
2023/04/22 04:33:10;;;;;;;13.38;10.65;;;;;;;7.30;67.24;100775.72;7397098;19;20022;-68
2023/04/22 04:35:40;;;;;;;15.35;10.55;;;;;;;7.29;67.07;100776.59;7398210;19;20014;-69
2023/04/22 04:38:08;;;;;;;14.68;11.98;;;;;;;7.28;67.34;100779.19;7397727;19;20014;-69
2023/04/22 04:40:37;;;;;;;15.25;10.75;;;;;;;7.25;67.57;100772.25;7395724;19;20011;-68
2023/04/22 04:43:07;;;;;;;13.68;10.57;;;;;;;7.23;67.63;100780.97;7395591;19;20026;-68
2023/04/22 04:45:38;;;;;;;13.95;10.70;;;;;;;7.20;67.52;100776.66;7396647;19;20037;-68
2023/04/22 04:48:08;;;;;;;13.23;11.07;;;;;;;7.18;67.87;100781.03;7397531;19;20011;-68
2023/04/22 04:50:36;;;;;;;18.17;10.38;;;;;;;7.18;67.74;100783.63;7397075;19;20037;-69
2023/04/22 04:53:06;;;;;;;14.68;10.70;;;;;;;7.17;67.97;100769.72;7396169;19;20265;-68
2023/04/22 04:55:34;;;;;;;14.20;10.82;;;;;;;7.20;67.76;100774.03;7398112;19;20041;-68
2023/04/22 04:58:02;;;;;;;12.70;10.43;;;;;;;7.22;68.03;100771.44;7396910;19;20018;-69
2023/04/22 05:00:31;;;;;;;16.83;10.40;;;;;;;7.21;67.92;100765.34;7396746;19;20011;-69
2023/04/22 05:03:02;;;;;;;13.25;10.45;;;;;;;7.25;67.94;100768.78;7394467;19;20021;-69
2023/04/22 05:05:31;;;;;;;14.98;10.35;;;;;;;7.28;67.78;100767.03;7397846;19;20024;-69
2023/04/22 05:07:59;;;;;;;16.08;10.35;;;;;;;7.30;67.99;100774.84;7396197;19;20017;-69
2023/04/22 05:10:28;;;;;;;11.93;10.40;;;;;;;7.34;67.81;100777.41;7396095;19;20021;-69
2023/04/22 05:12:56;;;;;;;12.88;9.82;;;;;;;7.39;67.96;100779.97;7395796;19;20019;-69
2023/04/22 05:15:24;;;;;;;12.98;10.25;;;;;;;7.44;67.78;100774.72;7396444;19;20018;-69
2023/04/22 05:17:53;;;;;;;16.40;12.45;;;;;;;7.48;67.79;100777.31;7394619;19;20086;-69
2023/04/22 05:20:24;;;;;;;11.15;9.52;;;;;;;7.53;67.72;100773.78;7396373;19;20081;-69
2023/04/22 05:22:52;;;;;;;13.15;9.68;;;;;;;7.59;67.59;100777.19;7394012;19;20015;-69
2023/04/22 05:25:21;;;;;;;14.85;10.65;;;;;;;7.65;67.48;100786.75;7394079;19;20014;-69
2023/04/22 05:27:55;;;;;;;15.23;10.05;;;;;;;7.72;67.61;100784.94;7396142;19;20032;-69
2023/04/22 05:30:24;;;;;;;11.90;9.88;;;;;;;7.77;67.27;100781.41;7394280;19;20082;-69
2023/04/22 05:32:52;;;;;;;14.00;10.05;;;;;;;7.83;67.14;100776.13;7395481;19;20014;-69
2023/04/22 05:35:23;;;;;;;14.98;10.43;;;;;;;7.90;67.07;100771.69;7395409;19;20014;-69
2023/04/22 05:37:52;;;;;;;12.00;9.60;;;;;;;7.98;67.02;100771.63;7394592;19;20018;-69
2023/04/22 05:40:20;;;;;;;18.85;11.98;;;;;;;8.06;66.96;100776.75;7394571;19;20017;-69
2023/04/22 05:42:49;;;;;;;16.35;11.25;;;;;;;8.14;66.67;100782.78;7394155;19;20366;-69
2023/04/22 05:45:17;;;;;;;13.35;9.02;;;;;;;8.21;66.72;100780.94;7395519;19;20014;-69
2023/04/22 05:47:46;;;;;;;14.40;11.38;;;;;;;8.29;66.60;100784.31;7395362;19;20086;-69
2023/04/22 05:50:14;;;;;;;13.57;9.93;;;;;;;8.37;66.81;100781.66;7395394;19;20018;-69
2023/04/22 05:52:45;;;;;;;12.10;9.35;;;;;;;8.46;66.51;100782.41;7394766;19;20018;-69
2023/04/22 05:55:13;;;;;;;12.70;9.95;;;;;;;8.56;66.33;100792.78;7394908;19;20015;-69
2023/04/22 05:57:42;;;;;;;13.75;10.52;;;;;;;8.65;66.35;100792.66;7393354;19;20029;-69
2023/04/22 06:00:12;;;;;;;12.07;10.55;;;;;;;8.74;65.99;100799.50;7394416;19;20070;-69
2023/04/22 06:02:40;;;;;;;12.98;10.57;;;;;;;8.82;65.85;100799.41;7392051;19;20397;-71
2023/04/22 06:05:09;;;;;;;13.15;9.60;;;;;;;8.90;65.83;100798.41;7394326;19;20032;-68
2023/04/22 06:07:38;;;;;;;17.25;12.23;;;;;;;8.98;65.72;100795.69;7394545;19;20018;-68
2023/04/22 06:10:10;;;;;;;12.80;9.95;;;;;;;9.06;65.70;100795.56;7393899;19;20021;-68
2023/04/22 06:12:39;;;;;;;14.45;10.07;;;;;;;9.14;65.63;100788.47;7395183;19;20093;-69
2023/04/22 06:15:10;;;;;;;11.57;9.70;;;;;;;9.23;65.39;100792.72;7394460;19;20022;-69
2023/04/22 06:17:38;;;;;;;12.73;9.38;;;;;;;9.32;65.51;100800.41;7391941;19;20018;-69
2023/04/22 06:20:08;;;;;;;12.73;10.63;;;;;;;9.40;65.32;100795.06;7392603;19;20015;-69
2023/04/22 06:22:37;;;;;;;13.65;10.80;;;;;;;9.48;65.18;100800.16;7393261;19;20018;-69
2023/04/22 06:25:09;;;;;;;11.63;9.75;;;;;;;9.56;65.13;100799.16;7394377;19;20021;-69
2023/04/22 06:27:37;;;;;;;13.23;10.25;;;;;;;9.64;65.17;100795.53;7392095;19;20508;-69
2023/04/22 06:30:06;;;;;;;12.27;10.15;;;;;;;9.71;64.79;100792.78;7392432;19;20078;-69
2023/04/22 06:32:35;;;;;;;11.05;9.85;;;;;;;9.80;64.92;100788.28;7393901;19;20018;-69
2023/04/22 06:35:03;;;;;;;12.00;10.35;;;;;;;9.88;64.84;100784.66;7393216;19;20014;-69
2023/04/22 06:37:32;;;;;;;14.02;10.18;;;;;;;9.97;64.79;100787.97;7391913;19;20074;-69
2023/04/22 06:40:00;;;;;;;11.90;9.70;;;;;;;10.05;64.70;100786.09;7392141;19;20150;-69
2023/04/22 06:42:31;;;;;;;14.00;9.70;;;;;;;10.13;64.47;100789.41;7391908;19;20019;-69
2023/04/22 06:45:00;;;;;;;13.27;9.77;;;;;;;10.23;64.19;100793.56;7394172;19;20078;-69
2023/04/22 06:47:28;;;;;;;12.45;9.15;;;;;;;10.32;64.19;100789.06;7393346;19;20011;-69
2023/04/22 06:49:57;;;;;;;13.15;9.90;;;;;;;10.40;63.71;100788.03;7393505;19;20018;-69
2023/04/22 06:52:25;;;;;;;12.15;9.43;;;;;;;10.51;63.68;100790.44;7393144;19;20545;-69
2023/04/22 06:54:53;;;;;;;11.73;9.30;;;;;;;10.62;63.44;100792.00;7391285;19;20022;-68
2023/04/22 06:57:22;;;;;;;12.50;10.15;;;;;;;10.71;63.30;100797.03;7390970;19;20025;-69
2023/04/22 06:59:53;;;;;;;14.88;9.27;;;;;;;10.83;63.15;100785.41;7390728;19;20011;-68
2023/04/22 07:02:21;;;;;;;13.60;9.93;;;;;;;10.94;62.79;100793.03;7391077;19;20022;-69
2023/04/22 07:04:50;;;;;;;20.17;14.32;;;;;;;11.04;62.67;100784.06;7392810;19;20074;-69
2023/04/22 07:07:18;;;;;;;20.73;15.00;;;;;;;11.15;62.67;100789.06;7393859;19;20438;-69
2023/04/22 07:09:46;;;;;;;16.35;11.55;;;;;;;11.25;62.50;100783.56;7400149;19;20045;-69
2023/04/22 07:12:15;;;;;;;12.75;10.15;;;;;;;11.37;62.31;100778.91;7397199;19;20493;-69
2023/04/22 07:14:45;;;;;;;11.20;9.38;;;;;;;11.48;62.00;100776.88;7397646;19;20025;-68
2023/04/22 07:17:18;;;;;;;12.60;10.45;;;;;;;11.60;61.90;100775.72;7397779;19;20015;-68
2023/04/22 07:19:46;;;;;;;13.80;9.98;;;;;;;11.72;61.83;100778.00;7399795;19;20493;-68
2023/04/22 07:22:15;;;;;;;11.50;9.55;;;;;;;11.79;61.62;100773.47;7399329;19;20078;-69
2023/04/22 07:24:43;;;;;;;12.00;9.80;;;;;;;11.96;61.30;100769.56;7397441;19;20015;-69
2023/04/22 07:27:11;;;;;;;12.35;9.15;;;;;;;12.06;61.05;100769.25;7400094;19;20015;-69
2023/04/22 07:29:40;;;;;;;14.45;10.63;;;;;;;12.19;60.88;100769.75;7399656;19;20090;-69
2023/04/22 07:32:08;;;;;;;12.90;9.63;;;;;;;12.32;60.75;100761.53;7399555;19;20036;-68
2023/04/22 07:34:39;;;;;;;12.63;9.57;;;;;;;12.45;60.77;100765.53;7396966;19;20022;-68
2023/04/22 07:37:08;;;;;;;13.82;9.75;;;;;;;12.58;60.31;100760.78;7399010;19;20086;-69
2023/04/22 07:39:43;;;;;;;11.57;8.75;;;;;;;12.72;59.81;100763.00;7397432;19;20014;-70
2023/04/22 07:42:11;;;;;;;11.23;8.43;;;;;;;12.87;59.41;100761.66;7398831;19;20014;-71
2023/04/22 07:44:40;;;;;;;11.88;8.77;;;;;;;13.01;59.03;100761.22;7397193;19;20537;-71
2023/04/22 07:47:09;;;;;;;13.68;9.32;;;;;;;13.14;58.72;100759.94;7398859;19;20019;-71
2023/04/22 07:49:42;;;;;;;10.00;8.55;;;;;;;13.27;58.28;100755.13;7398977;19;20045;-70
2023/04/22 07:52:10;;;;;;;9.15;7.65;;;;;;;13.41;58.24;100746.78;7398713;19;20018;-69
2023/04/22 07:54:39;;;;;;;14.48;8.02;;;;;;;13.55;57.95;100741.06;7396795;19;20015;-70
2023/04/22 07:57:07;;;;;;;13.80;8.07;;;;;;;13.67;57.22;100738.00;7398521;19;20101;-69
2023/04/22 07:59:35;;;;;;;10.73;7.57;;;;;;;13.84;56.01;100736.56;7398101;19;20557;-70
2023/04/22 08:02:04;;;;;;;12.07;6.75;;;;;;;13.99;54.99;100736.00;7398561;19;20033;-70
2023/04/22 08:04:32;;;;;;;12.98;6.97;;;;;;;14.17;54.06;100739.72;7396442;19;20028;-70
2023/04/22 08:07:03;;;;;;;8.23;6.32;;;;;;;14.34;53.14;100740.88;7398018;19;20083;-71
2023/04/22 08:09:32;;;;;;;10.77;6.60;;;;;;;14.47;52.72;100728.94;7398665;19;20015;-70
2023/04/22 08:12:02;;;;;;;13.35;6.78;;;;;;;14.64;52.37;100730.97;7395899;19;20487;-71
2023/04/22 08:14:30;;;;;;;9.27;6.68;;;;;;;14.77;52.46;100728.72;7396298;19;20018;-71
2023/04/22 08:16:58;;;;;;;9.32;6.93;;;;;;;14.88;51.98;100725.63;7398194;19;20082;-66
2023/04/22 08:19:27;;;;;;;10.95;6.53;;;;;;;15.00;51.78;100713.72;7396677;19;20014;-66
2023/04/22 08:21:56;;;;;;;9.98;6.13;;;;;;;15.13;50.90;100722.00;7397757;19;20011;-67
2023/04/22 08:24:27;;;;;;;10.38;6.13;;;;;;;15.26;50.89;100722.34;7395495;19;20385;-72
2023/04/22 08:26:56;;;;;;;10.98;6.18;;;;;;;15.37;50.36;100730.69;7396140;19;20014;-68
2023/04/22 08:29:24;;;;;;;7.95;5.78;;;;;;;15.51;49.59;100735.41;7397576;19;20015;-68
2023/04/22 08:31:53;;;;;;;12.07;5.95;;;;;;;15.63;49.08;100729.59;7397472;19;20041;-68
2023/04/22 08:34:21;;;;;;;8.38;5.53;;;;;;;15.75;48.94;100727.34;7395577;19;20086;-68
2023/04/22 08:36:50;;;;;;;10.13;5.53;;;;;;;15.87;48.78;100720.66;7397223;19;20010;-68
2023/04/22 08:39:18;;;;;;;6.85;5.53;;;;;;;15.95;48.79;100718.56;7396842;19;20018;-69
2023/04/22 08:41:50;;;;;;;9.32;5.80;;;;;;;16.05;48.24;100719.84;7396993;19;20499;-68
2023/04/22 08:44:19;;;;;;;11.18;5.50;;;;;;;16.16;47.74;100722.00;7395192;19;20022;-66
2023/04/22 08:46:48;;;;;;;10.27;5.60;;;;;;;16.25;47.72;100718.06;7397238;19;20090;-66
2023/04/22 08:49:17;;;;;;;10.30;5.00;;;;;;;16.37;47.68;100714.88;7397230;19;20015;-66
2023/04/22 08:51:46;;;;;;;9.30;5.00;;;;;;;16.47;47.16;100714.44;7396987;19;20014;-67
2023/04/22 08:54:15;;;;;;;9.05;5.18;;;;;;;16.55;46.93;100712.28;7395680;19;20038;-66
2023/04/22 08:56:46;;;;;;;9.65;5.15;;;;;;;16.65;46.34;100707.44;7394926;19;20082;-67
2023/04/22 08:59:18;;;;;;;7.93;4.20;;;;;;;16.78;44.71;100708.53;7396216;19;20433;-68
2023/04/22 09:01:49;;;;;;;6.18;4.45;;;;;;;16.89;44.87;100708.03;7395169;19;20023;-67
2023/04/22 09:04:20;;;;;;;8.27;4.00;;;;;;;17.00;44.64;100697.78;7395084;19;20024;-67
2023/04/22 09:06:48;;;;;;;9.13;4.43;;;;;;;17.08;43.77;100695.59;7396125;19;20500;-67
2023/04/22 09:09:17;;;;;;;10.35;4.45;;;;;;;17.17;43.63;100698.75;7396237;19;20078;-67
2023/04/22 09:11:45;;;;;;;9.50;4.75;;;;;;;17.27;43.52;100692.03;7395823;19;20110;-68
2023/04/22 09:14:17;;;;;;;10.30;4.68;;;;;;;17.36;43.03;100693.38;7395021;19;20101;-68
2023/04/22 09:16:49;;;;;;;8.93;4.55;;;;;;;17.46;42.54;100694.59;7396073;19;20014;-68
2023/04/22 09:19:18;;;;;;;5.97;4.32;;;;;;;17.56;42.60;100690.53;7394441;19;20019;-69
2023/04/22 09:21:46;;;;;;;7.57;4.60;;;;;;;17.65;41.96;100688.34;7393643;19;20014;-69
2023/04/22 09:24:15;;;;;;;10.60;4.47;;;;;;;17.72;42.14;100682.63;7394380;19;20024;-68
2023/04/22 09:26:44;;;;;;;7.38;4.70;;;;;;;17.80;42.34;100687.53;7395500;19;20082;-68
2023/04/22 09:29:18;;;;;;;7.65;4.90;;;;;;;17.85;42.40;100674.88;7393769;19;20026;-68
2023/04/22 09:31:50;;;;;;;9.38;4.20;;;;;;;17.92;41.11;100675.44;7391268;19;20025;-70
2023/04/22 09:34:18;;;;;;;7.35;4.75;;;;;;;18.02;41.33;100678.47;7394355;19;20529;-68
2023/04/22 09:36:48;;;;;;;7.93;4.40;;;;;;;18.11;41.20;100674.44;7395277;19;20015;-68
2023/04/22 09:39:16;;;;;;;6.40;4.45;;;;;;;18.20;41.04;100666.84;7393014;19;20014;-68
2023/04/22 09:41:44;;;;;;;9.15;4.32;;;;;;;18.27;40.19;100662.03;7394071;19;20010;-68
2023/04/22 09:44:19;;;;;;;8.77;4.93;;;;;;;18.38;39.34;100662.31;7393365;19;20095;-66
2023/04/22 09:46:51;;;;;;;6.82;4.55;;;;;;;18.47;38.48;100660.09;7395053;19;20552;-72
2023/04/22 09:49:20;;;;;;;6.85;4.22;;;;;;;18.54;38.77;100656.16;7395548;19;20033;-68
2023/04/22 09:51:48;;;;;;;6.80;3.95;;;;;;;18.59;39.06;100651.44;7394237;19;20541;-68
2023/04/22 09:54:17;;;;;;;7.65;4.38;;;;;;;18.65;39.03;100642.25;7393060;19;20074;-68
2023/04/22 09:56:48;;;;;;;8.30;4.43;;;;;;;18.70;38.63;100648.13;7394776;19;20015;-69
2023/04/22 09:59:22;;;;;;;7.05;4.15;;;;;;;18.73;36.88;100643.50;7395312;19;20034;-67
2023/04/22 10:01:53;;;;;;;6.97;4.32;;;;;;;18.78;38.18;100634.41;7392478;19;20481;-68
2023/04/22 10:04:24;;;;;;;9.98;4.85;;;;;;;18.81;37.80;100642.22;7392563;19;20487;-67
2023/04/22 10:06:53;;;;;;;12.23;5.63;;;;;;;18.87;37.91;100633.88;7393996;19;20015;-67
2023/04/22 10:09:23;;;;;;;12.25;5.35;;;;;;;18.92;37.61;100626.53;7394544;19;20023;-67
2023/04/22 10:11:53;;;;;;;9.18;4.03;;;;;;;19.00;37.07;100626.06;7392496;19;20506;-69
2023/04/22 10:14:24;;;;;;;8.43;4.07;;;;;;;19.09;35.88;100624.69;7393745;19;20018;-68
2023/04/22 10:16:59;;;;;;;6.75;4.30;;;;;;;19.18;36.04;100616.16;7395019;19;20074;-67
2023/04/22 10:19:28;;;;;;;9.88;4.32;;;;;;;19.30;36.04;100618.06;7393704;19;20018;-68
2023/04/22 10:21:59;;;;;;;11.45;5.82;;;;;;;19.40;36.16;100622.81;7393764;19;20077;-67
2023/04/22 10:24:30;;;;;;;11.00;4.30;;;;;;;19.46;35.36;100619.78;7392166;19;20381;-68
2023/04/22 10:27:00;;;;;;;8.13;5.03;;;;;;;19.53;35.87;100614.00;7394116;19;20816;-71
2023/04/22 10:29:41;;;;;;;6.85;4.18;;;;;;;19.59;34.41;100620.75;7393822;19;20552;-66
2023/04/22 10:32:26;;;;;;;10.98;4.53;;;;;;;19.66;34.89;100614.13;7394985;19;20041;-68
2023/04/22 10:35:10;;;;;;;9.38;5.13;;;;;;;19.73;35.06;100605.72;7394293;19;20022;-68
2023/04/22 10:37:39;;;;;;;;;;;;;;;19.78;33.82;100612.47;7394193;19;20070;-68
2023/04/22 10:40:24;;;;;;;6.43;4.55;;;;;;;19.84;35.03;100604.16;7392343;19;19914;-68
2023/04/22 10:42:55;;;;;;;7.00;4.82;;;;;;;19.88;35.00;100607.47;7396588;19;20070;-68
2023/04/22 10:45:28;;;;;;;10.75;5.50;;;;;;;19.91;34.16;100599.28;7401873;19;20018;-68
2023/04/22 10:47:56;;;;;;;7.85;4.88;;;;;;;19.95;34.00;100597.28;7401576;19;20097;-68
2023/04/22 10:50:26;;;;;;;7.78;4.63;;;;;;;19.98;34.20;100600.63;7400969;19;20023;-68
2023/04/22 10:52:58;;;;;;;7.90;5.38;;;;;;;20.02;33.96;100591.47;7400232;19;20045;-68
2023/04/22 10:55:27;;;;;;;8.07;3.78;;;;;;;20.10;33.55;100590.13;7400329;19;20082;-67
2023/04/22 10:57:56;;;;;;;8.32;4.10;;;;;;;20.15;33.44;100585.34;7397685;19;20010;-68
2023/04/22 11:00:46;;;;;;;4.88;3.78;;;;;;;20.22;32.27;100581.34;7399886;19;20014;-67
2023/04/22 11:03:19;;;;;;;7.28;3.78;;;;;;;20.28;32.01;100580.09;7397098;19;20038;-67
2023/04/22 11:05:47;;;;;;;8.18;4.90;;;;;;;20.37;32.78;100573.31;7398209;19;20014;-67
2023/04/22 11:08:23;;;;;;;6.10;3.47;;;;;;;20.46;31.94;100575.34;7397776;19;20077;-68
2023/04/22 11:10:54;;;;;;;6.53;4.07;;;;;;;20.54;31.94;100573.03;7399484;19;20018;-67
2023/04/22 11:13:23;;;;;;;8.25;4.30;;;;;;;20.62;32.43;100569.88;7399054;19;20022;-68
2023/04/22 11:15:57;;;;;;;14.30;4.35;;;;;;;20.70;31.07;100564.88;7399987;19;20021;-67
2023/04/22 11:18:28;;;;;;;6.47;3.92;;;;;;;20.78;31.59;100565.25;7400634;19;20014;-67
2023/04/22 11:20:56;;;;;;;7.38;4.10;;;;;;;20.83;31.39;100557.78;7397763;19;20029;-67
2023/04/22 11:23:26;;;;;;;8.05;3.78;;;;;;;20.88;31.24;100560.16;7398617;19;20011;-69
2023/04/22 11:25:59;;;;;;;9.45;4.30;;;;;;;20.95;31.19;100560.56;7399758;19;20074;-68
2023/04/22 11:28:28;;;;;;;7.32;3.50;;;;;;;21.02;30.51;100558.34;7399800;19;20082;-68
2023/04/22 11:31:08;;;;;;;7.15;3.97;;;;;;;21.05;30.27;100560.81;7399421;19;20029;-68
2023/04/22 11:33:38;;;;;;;6.10;3.55;;;;;;;21.07;31.18;100553.56;7397256;19;20370;-69